Yuma, AZ

1:14 AM MST en Agosto 21, 2014 (GMT -0700)
Caballero Park | Change Station
CLOSE
Current Station
Estación meteorológica personal
Location: Yuma, AZ
Altura: 200 ft
Estaciones meteorológicas cercanas

Alt 200 ft 32.67 °N, 114.63 °W | Updated 6 minutes ago

Clear
Despejado
83.7 ° F
Sensación térmica 88 ° F
N
4.3
Viento Variable Viento desde ESE

Hoy
Alta -- | Baja -- ° F
--% Posibilidad de precipitaciones
Ayer
Alta -- | Baja -- ° F
Precip. -- pul
6:06 AM 7:16 PM
Creciente menguante, 16% visible
Presión 29.81 pul
Visibilidad 10.0 Millas
Nubes Despejado
Índice de calor 88 ° F
Punto de rocío 69 ° F
Humedad 62%
Precipitaciones 0.00 pul
Espesor de la nieve No disponible.
UV 0 de una escala de 12
Polen 6.60 de una escala de 12
Calidad del aire No disponible.
Flu Activity No disponible.
METAR KNYL 210757Z AUTO 15007KT 10SM CLR 30/19 A2981 RMK AO2 SLP092 T03000189

More Conditions Fewer Conditions

Presión 29.81 pul
Visibilidad 10.0 Millas
Nubes Despejado
Índice de calor 88 ° F
Punto de rocío 69 ° F
Humedad 62%
Precipitaciones 0.00 pul
Espesor de la nieve No disponible.
UV 0 de una escala de 12
Polen 6.60 de una escala de 12
Calidad del aire No disponible.
Flu Activity No disponible.
METAR KNYL 210757Z AUTO 15007KT 10SM CLR 30/19 A2981 RMK AO2 SLP092 T03000189

More Conditions Fewer Conditions

10-Day Weather Forecast

Almanac

Astronomía

Aug. 21, 2014 Salida Puesta
Hora real 6:06 AM MST 7:16 PM MST
Crepúsculo civil 5:40 AM MST 7:42 PM MST
Crepúsculo náutico 5:10 AM MST 8:12 PM MST
Crepúsculo astronómico 4:38 AM MST 8:44 PM MST
Luna 2:45 AM MST 4:43 PM MST
Horas de luz 14h 01m
Horas de luz
13h 10m
Tomorrow will be 1m 50s shorter.
Creciente menguante, 16% of the Moon is Illuminated
Hoy
Creciente menguante
Ago 25
Nueva
Sep 2
Cuarto creciente
Sep 8
Luna llena
Sep 15
Cuarto menguante

Extremos de hoy

Máximos del estado Bajos del estado

Community

WunderPhotos

Upload Photos

1,745,867 ¡fotos cargadas!

Nearby

Grosos de nieve

Estación Profundido Altura
White Horse Lake 0 in 7180 ft
Workman Creek 1 in 6900 ft
Mormon Mountain 0 in 7500 ft
Promontory 0 in 7930 ft
Snowslide Canyon 1 in 9730 ft

Actividad de terremotos

Ciudad Distance Mag. Tiempo y dato
Yucca Valley, California 151 Millas 3.8 8:57 PM MST
2014-08-14
Alberto Oviedo Mota, Mexico 49 Millas 2.8 3:03 PM MST
2014-08-14
Salton City, California 85 Millas 2.6 6:58 AM MST
2014-08-14
Magnitud mínima muestra es 2,5.

Temperaturas de aguas costeras

Lugar Temperatura
Sin partes meteorológicos de las estaciones

Estaciones meteorológicas cercanas